createdAt,value
2018-01-21T00:02:21.543Z,20.93
2018-01-21T00:04:49.443Z,21.83
2018-01-21T00:07:17.522Z,19.40
2018-01-21T00:09:45.555Z,20.77
2018-01-21T00:12:13.455Z,21.23
2018-01-21T00:14:42.587Z,19.40
2018-01-21T00:17:11.186Z,20.30
2018-01-21T00:19:38.695Z,20.47
2018-01-21T00:22:07.294Z,20.47
2018-01-21T00:24:35.614Z,22.33
2018-01-21T00:27:03.946Z,19.93
2018-01-21T00:29:32.299Z,20.40
2018-01-21T00:31:59.802Z,23.63
2018-01-21T00:34:28.806Z,22.43
2018-01-21T00:36:56.468Z,23.70
2018-01-21T00:39:23.996Z,23.17
2018-01-21T00:41:51.511Z,22.20
2018-01-21T00:44:19.219Z,21.47
2018-01-21T00:46:46.731Z,21.17
2018-01-21T00:49:14.233Z,21.87
2018-01-21T00:51:42.205Z,22.00
2018-01-21T00:54:10.211Z,22.37
2018-01-21T00:56:38.347Z,22.00
2018-01-21T00:59:06.276Z,22.10
2018-01-21T01:01:33.787Z,22.00
2018-01-21T01:04:01.329Z,21.67
2018-01-21T01:06:29.092Z,20.90
2018-01-21T01:08:56.855Z,20.53
2018-01-21T01:11:24.627Z,20.20
2018-01-21T01:13:52.162Z,21.83
2018-01-21T01:16:19.814Z,21.50
2018-01-21T01:18:47.327Z,20.13
2018-01-21T01:21:15.019Z,20.80
2018-01-21T01:23:42.527Z,21.90
2018-01-21T01:26:11.187Z,20.30
2018-01-21T01:28:39.196Z,22.10
2018-01-21T01:31:06.697Z,22.73
2018-01-21T01:33:34.199Z,24.13
2018-01-21T01:36:02.110Z,23.10
2018-01-21T01:38:29.619Z,23.30
2018-01-21T01:40:57.122Z,23.67
2018-01-21T01:43:25.031Z,22.53
2018-01-21T01:45:52.742Z,23.00
2018-01-21T01:48:20.455Z,22.30
2018-01-21T01:50:47.956Z,22.70
2018-01-21T01:53:15.469Z,20.23
2018-01-21T01:55:43.130Z,24.53
2018-01-21T01:58:11.043Z,22.40
2018-01-21T02:00:39.306Z,22.60
2018-01-21T02:03:07.042Z,23.47
2018-01-21T02:05:35.803Z,22.33
2018-01-21T02:08:04.439Z,22.80
2018-01-21T02:10:32.742Z,21.27
2018-01-21T02:13:00.770Z,22.20
2018-01-21T02:15:29.039Z,21.30
2018-01-21T02:17:56.646Z,20.90
2018-01-21T02:20:24.158Z,21.00
2018-01-21T02:22:52.058Z,21.73
2018-01-21T02:25:19.992Z,22.33
2018-01-21T02:27:48.050Z,22.20
2018-01-21T02:30:15.563Z,20.43
2018-01-21T02:32:43.082Z,22.70
2018-01-21T02:35:10.605Z,21.00
2018-01-21T02:37:38.139Z,21.93
2018-01-21T02:40:05.654Z,19.97
2018-01-21T02:42:33.989Z,21.40
2018-01-21T02:45:02.726Z,21.57
2018-01-21T02:47:30.218Z,20.90
2018-01-21T02:49:57.928Z,20.00
2018-01-21T02:52:25.994Z,19.63
2018-01-21T02:54:53.523Z,20.13
2018-01-21T02:57:21.166Z,21.80
2018-01-21T02:59:48.675Z,21.93
2018-01-21T03:02:16.175Z,20.40
2018-01-21T03:04:43.868Z,21.70
2018-01-21T03:07:11.366Z,22.70
2018-01-21T03:09:40.382Z,21.03
2018-01-21T03:12:08.106Z,20.30
2018-01-21T03:14:36.175Z,22.60
2018-01-21T03:17:03.935Z,22.30
2018-01-21T03:19:31.838Z,19.80
2018-01-21T03:21:59.354Z,20.53
2018-01-21T03:24:26.919Z,21.63
2018-01-21T03:26:54.417Z,21.20
2018-01-21T03:29:22.138Z,20.73
2018-01-21T03:31:49.907Z,20.20
2018-01-21T03:34:18.222Z,20.93
2018-01-21T03:36:46.471Z,20.60
2018-01-21T03:39:14.115Z,21.07
2018-01-21T03:41:41.619Z,22.20
2018-01-21T03:44:09.602Z,20.57
2018-01-21T03:46:38.037Z,20.43
2018-01-21T03:49:05.571Z,19.97
2018-01-21T03:51:33.255Z,21.03
2018-01-21T03:54:00.772Z,21.70
2018-01-21T03:56:28.762Z,21.77
2018-01-21T03:58:56.838Z,21.93
2018-01-21T04:01:24.888Z,21.37
2018-01-21T04:03:52.378Z,21.87
2018-01-21T04:06:20.998Z,20.30
2018-01-21T04:08:48.811Z,20.07
2018-01-21T04:11:16.863Z,21.63
2018-01-21T04:13:44.372Z,19.83
2018-01-21T04:16:12.123Z,20.10
2018-01-21T04:18:40.149Z,21.50
2018-01-21T04:21:08.410Z,21.93
2018-01-21T04:23:35.918Z,22.27
2018-01-21T04:26:04.182Z,20.80
2018-01-21T04:28:31.686Z,20.90
2018-01-21T04:31:00.222Z,20.40
2018-01-21T04:33:27.986Z,19.57
2018-01-21T04:35:55.771Z,19.67
2018-01-21T04:38:23.283Z,22.10
2018-01-21T04:40:51.551Z,20.47
2018-01-21T04:43:19.055Z,20.37
2018-01-21T04:45:46.563Z,20.63
2018-01-21T04:48:14.279Z,20.73
2018-01-21T04:50:41.998Z,19.00
2018-01-21T04:53:09.706Z,20.47
2018-01-21T04:55:37.604Z,19.47
2018-01-21T04:58:05.879Z,19.23
2018-01-21T05:00:33.386Z,19.93
2018-01-21T05:03:01.294Z,20.60
2018-01-21T05:05:29.554Z,19.43
2018-01-21T05:07:57.603Z,20.20
2018-01-21T05:10:25.098Z,22.80
2018-01-21T05:12:53.510Z,20.33
2018-01-21T05:15:21.007Z,19.63
2018-01-21T05:17:48.942Z,18.80
2018-01-21T05:20:16.439Z,19.90
2018-01-21T05:22:43.955Z,20.23
2018-01-21T05:25:11.458Z,21.70
2018-01-21T05:27:39.354Z,20.33
2018-01-21T05:30:06.851Z,19.70
2018-01-21T05:32:34.368Z,18.87
2018-01-21T05:35:02.084Z,21.20
2018-01-21T05:37:29.846Z,19.57
2018-01-21T05:39:57.738Z,20.73
2018-01-21T05:42:25.243Z,21.50
2018-01-21T05:44:52.804Z,21.03
2018-01-21T05:47:20.298Z,21.10
2018-01-21T05:49:47.924Z,20.73
2018-01-21T05:52:15.467Z,21.57
2018-01-21T05:54:42.970Z,20.90
2018-01-21T05:57:10.723Z,20.80
2018-01-21T05:59:38.503Z,19.27
2018-01-21T06:02:06.007Z,20.60
2018-01-21T06:04:33.995Z,21.17
2018-01-21T06:07:01.500Z,20.77
2018-01-21T06:09:29.210Z,21.60
2018-01-21T06:11:56.768Z,20.50
2018-01-21T06:14:25.045Z,22.00
2018-01-21T06:16:52.834Z,21.57
2018-01-21T06:19:20.339Z,21.73
2018-01-21T06:21:48.334Z,20.50
2018-01-21T06:24:15.826Z,21.30
2018-01-21T06:26:43.684Z,20.27
2018-01-21T06:29:11.303Z,22.00
2018-01-21T06:31:39.016Z,21.00
2018-01-21T06:34:06.911Z,22.90
2018-01-21T06:36:34.410Z,24.47
2018-01-21T06:39:03.234Z,22.23
2018-01-21T06:41:31.927Z,22.07
2018-01-21T06:44:00.191Z,21.07
2018-01-21T06:46:28.219Z,23.80
2018-01-21T06:48:55.713Z,24.47
2018-01-21T06:51:23.340Z,21.90
2018-01-21T06:53:50.831Z,22.43
2018-01-21T06:56:18.336Z,23.63
2018-01-21T06:58:46.347Z,21.63
2018-01-21T07:01:13.870Z,53.20
2018-01-21T07:03:41.379Z,30.87
2018-01-21T07:06:09.046Z,25.70
2018-01-21T07:08:37.038Z,23.50
2018-01-21T07:11:04.551Z,20.57
2018-01-21T07:13:32.087Z,22.77
2018-01-21T07:16:00.738Z,23.37
2018-01-21T07:18:28.228Z,20.60
2018-01-21T07:20:55.992Z,21.50
2018-01-21T07:23:23.675Z,21.30
2018-01-21T07:25:52.595Z,23.00
2018-01-21T07:28:20.122Z,21.87
2018-01-21T07:30:47.625Z,24.03
2018-01-21T07:33:15.349Z,23.40
2018-01-21T07:35:43.419Z,22.57
2018-01-21T07:38:11.459Z,23.20
2018-01-21T07:40:39.467Z,22.00
2018-01-21T07:43:07.011Z,22.00
2018-01-21T07:45:34.732Z,22.70
2018-01-21T07:48:02.639Z,22.00
2018-01-21T07:50:30.140Z,23.50
2018-01-21T07:52:58.682Z,24.27
2018-01-21T07:55:26.187Z,22.27
2018-01-21T07:57:53.875Z,23.47
2018-01-21T08:00:21.461Z,23.10
2018-01-21T08:02:49.983Z,22.97
2018-01-21T08:05:17.473Z,21.87
2018-01-21T08:07:45.563Z,23.50
2018-01-21T08:10:13.402Z,28.90
2018-01-21T08:12:40.946Z,24.37
2018-01-21T08:15:09.326Z,22.20
2018-01-21T08:17:37.595Z,20.00
2018-01-21T08:20:05.100Z,19.13
2018-01-21T08:22:32.771Z,22.33
2018-01-21T08:25:00.272Z,22.80
2018-01-21T08:27:28.297Z,20.67
2018-01-21T08:29:56.795Z,22.20
2018-01-21T08:32:24.310Z,21.60
2018-01-21T08:34:57.346Z,23.47
2018-01-21T08:37:30.584Z,21.27
2018-01-21T08:40:04.435Z,21.80
2018-01-21T08:42:34.276Z,20.70
2018-01-21T08:45:02.287Z,23.27
2018-01-21T08:47:29.791Z,23.67
2018-01-21T08:49:57.706Z,26.83
2018-01-21T08:52:25.204Z,24.80
2018-01-21T08:54:52.719Z,22.63
2018-01-21T08:57:20.812Z,25.17
2018-01-21T08:59:48.579Z,27.23
2018-01-21T09:02:16.463Z,22.70
2018-01-21T09:04:44.412Z,24.27
2018-01-21T09:07:12.179Z,21.77
2018-01-21T09:09:39.934Z,23.03
2018-01-21T09:12:08.051Z,22.83
2018-01-21T09:14:35.771Z,21.37
2018-01-21T09:17:03.271Z,21.93
2018-01-21T09:19:32.194Z,23.03
2018-01-21T09:21:59.698Z,25.27
2018-01-21T09:24:27.271Z,24.07
2018-01-21T09:26:55.539Z,24.37
2018-01-21T09:29:23.047Z,23.60
2018-01-21T09:31:50.680Z,25.70
2018-01-21T09:34:18.394Z,24.87
2018-01-21T09:36:46.874Z,23.00
2018-01-21T09:39:15.224Z,23.87
2018-01-21T09:41:42.718Z,23.10
2018-01-21T09:44:10.222Z,22.60
2018-01-21T09:46:37.734Z,24.67
2018-01-21T09:49:05.240Z,27.03
2018-01-21T09:51:32.839Z,24.87
2018-01-21T09:54:00.602Z,24.73
2018-01-21T09:56:28.519Z,25.47
2018-01-21T09:58:57.055Z,22.70
2018-01-21T10:01:24.557Z,25.70
2018-01-21T10:03:52.055Z,24.80
2018-01-21T10:06:19.762Z,24.97
2018-01-21T10:08:47.267Z,23.90
2018-01-21T10:11:14.774Z,22.47
2018-01-21T10:13:43.382Z,24.13
2018-01-21T10:16:11.095Z,23.80
2018-01-21T10:18:38.606Z,26.03
2018-01-21T10:21:06.631Z,23.23
2018-01-21T10:23:34.379Z,25.13
2018-01-21T10:26:02.429Z,24.10
2018-01-21T10:28:30.213Z,26.10
2018-01-21T10:30:57.986Z,21.50
2018-01-21T10:33:25.480Z,24.57
2018-01-21T10:35:53.204Z,23.80
2018-01-21T10:38:20.695Z,26.73
2018-01-21T10:40:48.601Z,26.40
2018-01-21T10:43:16.182Z,24.27
2018-01-21T10:45:43.684Z,25.03
2018-01-21T10:48:11.706Z,25.50
2018-01-21T10:50:39.479Z,24.60
2018-01-21T10:53:06.995Z,24.10
2018-01-21T10:55:35.262Z,24.90
2018-01-21T10:58:02.762Z,26.37
2018-01-21T11:00:36.301Z,25.10
2018-01-21T11:03:04.942Z,30.63
2018-01-21T11:05:32.475Z,47.83
2018-01-21T11:08:00.105Z,30.80
2018-01-21T11:10:27.602Z,35.03
2018-01-21T11:12:55.507Z,28.80
2018-01-21T11:15:23.010Z,26.60
2018-01-21T11:17:50.510Z,28.70
2018-01-21T11:20:19.451Z,26.90
2018-01-21T11:22:47.136Z,27.13
2018-01-21T11:25:15.484Z,26.50
2018-01-21T11:27:42.996Z,27.90
2018-01-21T11:30:10.778Z,28.67
2018-01-21T11:32:38.279Z,29.60
2018-01-21T11:35:06.565Z,33.27
2018-01-21T11:37:34.415Z,33.17
2018-01-21T11:40:02.133Z,32.47
2018-01-21T11:42:29.625Z,32.23
2018-01-21T11:44:57.128Z,26.70
2018-01-21T11:47:25.423Z,26.00
2018-01-21T11:49:52.935Z,25.37
2018-01-21T11:52:20.828Z,26.80
2018-01-21T11:54:48.395Z,29.50
2018-01-21T11:57:16.156Z,25.27
2018-01-21T11:59:44.864Z,26.10
2018-01-21T12:02:12.607Z,26.87
2018-01-21T12:04:40.395Z,24.73
2018-01-21T12:07:07.908Z,26.40
2018-01-21T12:09:36.547Z,28.13
2018-01-21T12:12:05.002Z,31.60
2018-01-21T12:14:32.976Z,26.80
2018-01-21T12:17:00.479Z,27.27
2018-01-21T12:19:27.987Z,27.33
2018-01-21T12:21:55.600Z,24.90
2018-01-21T12:24:23.111Z,24.70
2018-01-21T12:26:51.010Z,24.30
2018-01-21T12:29:19.491Z,24.37
2018-01-21T12:31:47.002Z,23.67
2018-01-21T12:34:14.508Z,21.53
2018-01-21T12:36:42.218Z,21.03
2018-01-21T12:39:09.921Z,21.30
2018-01-21T12:41:37.835Z,22.20
2018-01-21T12:44:05.485Z,19.43
2018-01-21T12:46:32.989Z,22.70
2018-01-21T12:49:01.655Z,22.17
2018-01-21T12:51:29.163Z,21.60
2018-01-21T12:53:56.679Z,23.20
2018-01-21T12:56:24.327Z,24.23
2018-01-21T12:58:52.379Z,23.60
2018-01-21T13:01:20.548Z,22.40
2018-01-21T13:03:48.047Z,22.53
2018-01-21T13:06:15.690Z,23.50
2018-01-21T13:08:43.583Z,22.57
2018-01-21T13:11:11.486Z,22.30
2018-01-21T13:13:39.776Z,20.40
2018-01-21T13:16:07.334Z,21.10
2018-01-21T13:18:34.827Z,19.50
2018-01-21T13:21:02.336Z,21.57
2018-01-21T13:23:30.023Z,20.57
2018-01-21T13:25:57.531Z,21.83
2018-01-21T13:28:25.025Z,23.07
2018-01-21T13:30:53.872Z,20.60
2018-01-21T13:33:22.320Z,22.60
2018-01-21T13:35:50.082Z,22.37
2018-01-21T13:38:17.595Z,24.53
2018-01-21T13:40:46.839Z,25.30
2018-01-21T13:43:14.759Z,26.60
2018-01-21T13:45:42.675Z,24.40
2018-01-21T13:48:10.208Z,23.57
2018-01-21T13:50:37.727Z,24.40
2018-01-21T13:53:06.210Z,22.20
2018-01-21T13:55:33.719Z,24.03
2018-01-21T13:58:01.235Z,23.47
2018-01-21T14:00:28.947Z,23.10
2018-01-21T14:02:56.674Z,22.17
2018-01-21T14:05:24.174Z,23.10
2018-01-21T14:07:51.702Z,24.10
2018-01-21T14:10:20.013Z,22.47
2018-01-21T14:12:47.512Z,24.30
2018-01-21T14:15:15.182Z,25.50
2018-01-21T14:17:43.267Z,26.67
2018-01-21T14:20:10.763Z,24.37
2018-01-21T14:22:38.286Z,28.60
2018-01-21T14:25:05.987Z,25.80
2018-01-21T14:27:33.490Z,26.60
2018-01-21T14:30:00.995Z,25.90
2018-01-21T14:32:28.651Z,27.30
2018-01-21T14:34:56.691Z,24.40
2018-01-21T14:37:25.056Z,26.43
2018-01-21T14:39:52.581Z,24.97
2018-01-21T14:42:20.624Z,26.10
2018-01-21T14:44:48.131Z,27.33
2018-01-21T14:47:16.418Z,26.33
2018-01-21T14:49:43.931Z,25.20
2018-01-21T14:52:11.456Z,25.07
2018-01-21T14:54:38.944Z,28.40
2018-01-21T14:57:06.444Z,26.33
2018-01-21T14:59:34.355Z,26.50
2018-01-21T15:02:02.456Z,28.97
2018-01-21T15:04:29.992Z,29.33
2018-01-21T15:06:57.492Z,29.90
2018-01-21T15:09:24.999Z,27.37
2018-01-21T15:11:52.551Z,26.90
2018-01-21T15:14:20.066Z,29.23
2018-01-21T15:16:47.747Z,25.80
2018-01-21T15:19:15.240Z,28.60
2018-01-21T15:21:42.754Z,27.53
2018-01-21T15:24:10.446Z,28.87
2018-01-21T15:26:37.970Z,28.00
2018-01-21T15:29:05.643Z,28.77
2018-01-21T15:31:37.795Z,27.10
2018-01-21T15:34:05.459Z,27.37
2018-01-21T15:36:32.982Z,28.03
2018-01-21T15:39:05.777Z,25.97
2018-01-21T15:41:34.026Z,26.03
2018-01-21T16:17:35.810Z,24.47
2018-01-21T16:20:03.709Z,25.43
2018-01-21T16:22:31.521Z,26.77
2018-01-21T16:24:59.791Z,25.57
2018-01-21T16:27:27.839Z,24.07
2018-01-21T16:29:56.095Z,27.17
2018-01-21T17:00:06.683Z,27.37
2018-01-21T17:02:34.936Z,27.03
2018-01-21T17:05:02.475Z,28.20
2018-01-21T17:07:29.984Z,26.47
2018-01-21T17:09:57.495Z,24.97
2018-01-21T17:12:25.038Z,24.33
2018-01-21T17:14:52.637Z,24.40
2018-01-21T17:17:20.170Z,20.50
2018-01-21T17:19:47.687Z,21.60
2018-01-21T17:22:15.186Z,22.57
2018-01-21T17:24:43.268Z,21.77
2018-01-21T17:27:10.739Z,21.27
2018-01-21T17:29:38.242Z,21.70
2018-01-21T17:32:06.737Z,20.40
2018-01-21T17:34:34.262Z,19.27
2018-01-21T17:37:05.843Z,21.60
2018-01-21T17:39:33.361Z,20.40
2018-01-21T17:42:00.875Z,21.77
2018-01-21T17:44:28.532Z,20.07
2018-01-21T17:46:56.157Z,19.40
2018-01-21T17:49:23.647Z,19.20
2018-01-21T17:51:51.201Z,18.53
2018-01-21T17:54:18.834Z,18.27
2018-01-21T17:56:46.327Z,18.23
2018-01-21T17:59:13.855Z,19.93
2018-01-21T18:01:41.362Z,18.40
2018-01-21T18:04:09.071Z,18.80
2018-01-21T18:06:36.863Z,18.10
2018-01-21T18:09:04.379Z,17.73
2018-01-21T18:11:31.898Z,17.80
2018-01-21T18:13:59.409Z,18.97
2018-01-21T18:16:27.007Z,17.47
2018-01-21T18:18:54.503Z,17.20
2018-01-21T18:21:22.015Z,14.97
2018-01-21T18:23:50.063Z,17.00
2018-01-21T18:26:17.595Z,16.40
2018-01-21T18:28:45.159Z,15.80
2018-01-21T18:31:12.664Z,16.80
2018-01-21T18:33:40.417Z,17.83
2018-01-21T18:36:08.179Z,18.00
2018-01-21T18:38:35.690Z,18.50
2018-01-21T18:41:03.408Z,18.40
2018-01-21T18:43:30.890Z,16.67
2018-01-21T18:45:58.731Z,17.37
2018-01-21T18:48:26.389Z,18.27
2018-01-21T18:50:53.890Z,15.20
2018-01-21T18:53:21.585Z,16.60
2018-01-21T18:55:49.094Z,18.00
2018-01-21T18:58:16.837Z,18.17
2018-01-21T19:00:44.355Z,16.50
2018-01-21T19:03:12.051Z,17.13
2018-01-21T19:05:39.681Z,20.70
2018-01-21T19:08:07.264Z,17.20
2018-01-21T19:10:35.051Z,17.77
2018-01-21T19:13:02.670Z,16.43
2018-01-21T19:15:30.256Z,15.97
2018-01-21T19:17:57.783Z,16.13
2018-01-21T19:20:25.467Z,15.87
2018-01-21T19:22:53.395Z,17.20
2018-01-21T19:25:20.914Z,15.57
2018-01-21T19:27:49.583Z,16.50
2018-01-21T19:30:17.061Z,16.80
2018-01-21T19:32:44.623Z,16.93
2018-01-21T19:35:12.902Z,17.60
2018-01-21T19:37:40.411Z,17.40
2018-01-21T19:40:12.979Z,16.77
2018-01-21T19:42:46.084Z,19.00
2018-01-21T19:45:13.578Z,19.20
2018-01-21T19:47:41.093Z,19.83
2018-01-21T19:50:08.784Z,18.93
2018-01-21T19:52:36.531Z,20.70
2018-01-21T19:55:04.312Z,19.97
2018-01-21T19:57:31.825Z,20.53
2018-01-21T19:59:59.352Z,20.07
2018-01-21T20:02:26.858Z,20.90
2018-01-21T20:04:54.383Z,22.37
2018-01-21T20:07:22.370Z,21.53
2018-01-21T20:09:49.965Z,20.83
2018-01-21T20:12:17.470Z,19.67
2018-01-21T20:14:45.687Z,19.17
2018-01-21T20:17:13.551Z,19.47
2018-01-21T20:19:41.063Z,20.80
2018-01-21T20:22:08.744Z,21.20
2018-01-21T20:24:36.408Z,20.07
2018-01-21T20:27:03.898Z,21.63
2018-01-21T20:29:31.468Z,22.53
2018-01-21T20:31:58.972Z,24.43
2018-01-21T20:34:26.545Z,21.50
2018-01-21T20:36:54.039Z,22.43
2018-01-21T20:39:21.569Z,22.40
2018-01-21T20:41:49.075Z,20.60
2018-01-21T20:44:17.392Z,20.67
2018-01-21T20:46:44.896Z,20.73
2018-01-21T20:49:12.407Z,22.37
2018-01-21T20:51:45.611Z,21.03
2018-01-21T20:54:18.885Z,21.20
2018-01-21T20:56:46.608Z,19.37
2018-01-21T20:59:14.118Z,20.40
2018-01-21T21:01:41.623Z,21.50
2018-01-21T21:04:09.128Z,20.53
2018-01-21T21:06:36.815Z,21.37
2018-01-21T21:09:04.319Z,21.77
2018-01-21T21:11:32.944Z,20.60
2018-01-21T21:14:00.445Z,19.80
2018-01-21T21:16:27.960Z,22.23
2018-01-21T21:18:55.461Z,23.23
2018-01-21T21:21:24.190Z,21.80
2018-01-21T21:23:51.756Z,22.40
2018-01-21T21:26:19.261Z,21.13
2018-01-21T21:28:46.784Z,23.40
2018-01-21T21:31:14.425Z,24.57
2018-01-21T21:33:41.934Z,24.77
2018-01-21T21:36:09.451Z,22.97
2018-01-21T21:38:37.138Z,23.90
2018-01-21T21:41:04.676Z,25.63
2018-01-21T21:43:32.815Z,22.37
2018-01-21T21:46:00.390Z,23.10
2018-01-21T21:48:28.183Z,24.07
2018-01-21T21:50:55.699Z,23.33
2018-01-21T21:53:23.231Z,22.87
2018-01-21T21:55:51.514Z,23.17
2018-01-21T21:58:19.042Z,23.70
2018-01-21T22:00:46.540Z,26.70
2018-01-21T22:03:14.147Z,21.50
2018-01-21T22:05:41.643Z,24.97
2018-01-21T22:08:09.159Z,22.87
2018-01-21T22:10:36.657Z,24.80
2018-01-21T22:13:05.213Z,24.30
2018-01-21T22:15:32.738Z,24.47
2018-01-21T22:18:00.317Z,22.37
2018-01-21T22:20:27.814Z,21.50
2018-01-21T22:22:55.335Z,25.43
2018-01-21T22:25:23.706Z,20.60
2018-01-21T22:27:51.211Z,21.80
2018-01-21T22:30:18.743Z,17.93
2018-01-21T22:32:46.246Z,20.57
2018-01-21T22:35:13.753Z,21.07
2018-01-21T22:37:41.255Z,20.73
2018-01-21T22:40:08.756Z,20.20
2018-01-21T22:42:36.270Z,18.97
2018-01-21T22:45:03.782Z,21.87
2018-01-21T22:47:31.281Z,21.20
2018-01-21T22:49:59.559Z,24.73
2018-01-21T22:52:27.180Z,21.90
2018-01-21T22:54:54.695Z,21.50
2018-01-21T22:57:24.691Z,19.77
2018-01-21T22:59:52.366Z,21.77
2018-01-21T23:02:19.868Z,21.07
2018-01-21T23:04:47.391Z,20.17
2018-01-21T23:07:14.899Z,20.03
2018-01-21T23:09:42.536Z,22.03
2018-01-21T23:12:10.297Z,21.57
2018-01-21T23:14:37.807Z,21.47
2018-01-21T23:17:05.298Z,22.03
2018-01-21T23:19:32.980Z,22.10
2018-01-21T23:22:00.757Z,21.57
2018-01-21T23:24:29.776Z,20.13
2018-01-21T23:26:57.507Z,20.97
2018-01-21T23:29:25.015Z,19.80
2018-01-21T23:31:52.676Z,19.50
2018-01-21T23:34:20.183Z,19.70
2018-01-21T23:36:48.525Z,19.57
2018-01-21T23:39:16.023Z,19.70
2018-01-21T23:41:45.298Z,21.13
2018-01-21T23:44:13.067Z,19.70
2018-01-21T23:46:40.835Z,20.20
2018-01-21T23:49:08.362Z,20.97
2018-01-21T23:51:35.861Z,18.80
2018-01-21T23:54:03.480Z,20.37
2018-01-21T23:56:31.275Z,21.57
2018-01-21T23:58:59.360Z,20.60
